sensor_id;sensor_type;location;lat;lon;timestamp;temperature;humidity
63960;DHT22;50136;51.374;0.096;2024-03-02T00:08:02;4.10;99.90
63960;DHT22;50136;51.374;0.096;2024-03-02T00:18:06;4.10;99.90
63960;DHT22;50136;51.374;0.096;2024-03-02T00:28:19;4.10;99.90
63960;DHT22;50136;51.374;0.096;2024-03-02T00:38:21;4.00;99.90
63960;DHT22;50136;51.374;0.096;2024-03-02T00:48:25;3.90;99.90
63960;DHT22;50136;51.374;0.096;2024-03-02T00:58:27;3.90;99.90
63960;DHT22;50136;51.374;0.096;2024-03-02T01:08:30;3.90;99.90
63960;DHT22;50136;51.374;0.096;2024-03-02T01:18:32;4.00;99.90
63960;DHT22;50136;51.374;0.096;2024-03-02T01:28:36;4.10;99.90
63960;DHT22;50136;51.374;0.096;2024-03-02T01:38:38;4.20;99.90
63960;DHT22;50136;51.374;0.096;2024-03-02T01:48:41;4.30;99.90
63960;DHT22;50136;51.374;0.096;2024-03-02T01:58:43;4.40;99.90
63960;DHT22;50136;51.374;0.096;2024-03-02T02:08:46;4.60;99.90
63960;DHT22;50136;51.374;0.096;2024-03-02T02:18:49;4.80;99.90
63960;DHT22;50136;51.374;0.096;2024-03-02T02:28:52;5.00;99.90
63960;DHT22;50136;51.374;0.096;2024-03-02T02:38:54;5.00;99.90
63960;DHT22;50136;51.374;0.096;2024-03-02T02:48:58;5.10;99.90
63960;DHT22;50136;51.374;0.096;2024-03-02T02:59:00;5.20;99.90
63960;DHT22;50136;51.374;0.096;2024-03-02T03:09:03;5.20;99.90
63960;DHT22;50136;51.374;0.096;2024-03-02T03:19:05;5.30;99.90
63960;DHT22;50136;51.374;0.096;2024-03-02T03:29:09;5.30;99.90
63960;DHT22;50136;51.374;0.096;2024-03-02T03:39:11;5.40;99.90
63960;DHT22;50136;51.374;0.096;2024-03-02T03:49:14;5.40;99.90
63960;DHT22;50136;51.374;0.096;2024-03-02T03:59:16;5.40;99.90
63960;DHT22;50136;51.374;0.096;2024-03-02T04:09:20;5.60;99.90
63960;DHT22;50136;51.374;0.096;2024-03-02T04:19:22;5.50;99.90
63960;DHT22;50136;51.374;0.096;2024-03-02T04:29:25;5.50;99.90
63960;DHT22;50136;51.374;0.096;2024-03-02T04:39:27;5.60;99.90
63960;DHT22;50136;51.374;0.096;2024-03-02T04:49:31;5.50;99.90
63960;DHT22;50136;51.374;0.096;2024-03-02T04:59:33;5.50;99.90
63960;DHT22;50136;51.374;0.096;2024-03-02T05:09:36;5.50;99.90
63960;DHT22;50136;51.374;0.096;2024-03-02T05:19:38;5.50;99.90
63960;DHT22;50136;51.374;0.096;2024-03-02T05:29:42;5.40;99.90
63960;DHT22;50136;51.374;0.096;2024-03-02T05:39:44;5.40;99.90
63960;DHT22;50136;51.374;0.096;2024-03-02T05:49:48;5.40;99.90
63960;DHT22;50136;51.374;0.096;2024-03-02T05:59:50;5.50;99.90
63960;DHT22;50136;51.374;0.096;2024-03-02T06:09:53;5.60;99.90
63960;DHT22;50136;51.374;0.096;2024-03-02T06:19:56;5.80;99.90
63960;DHT22;50136;51.374;0.096;2024-03-02T06:29:59;5.80;99.90
63960;DHT22;50136;51.374;0.096;2024-03-02T06:40:01;5.80;99.90
63960;DHT22;50136;51.374;0.096;2024-03-02T06:50:05;5.80;99.90
63960;DHT22;50136;51.374;0.096;2024-03-02T07:00:08;5.70;99.90
63960;DHT22;50136;51.374;0.096;2024-03-02T07:10:11;5.50;99.90
63960;DHT22;50136;51.374;0.096;2024-03-02T07:20:13;5.40;99.90
63960;DHT22;50136;51.374;0.096;2024-03-02T07:30:17;5.50;99.90
63960;DHT22;50136;51.374;0.096;2024-03-02T07:40:19;5.50;99.90
63960;DHT22;50136;51.374;0.096;2024-03-02T07:50:23;5.60;99.90
63960;DHT22;50136;51.374;0.096;2024-03-02T08:00:25;5.70;99.90
63960;DHT22;50136;51.374;0.096;2024-03-02T08:10:28;5.90;99.90
63960;DHT22;50136;51.374;0.096;2024-03-02T08:20:31;5.80;99.90
63960;DHT22;50136;51.374;0.096;2024-03-02T08:30:34;5.80;99.90
63960;DHT22;50136;51.374;0.096;2024-03-02T08:40:37;6.00;99.90
63960;DHT22;50136;51.374;0.096;2024-03-02T08:50:40;6.10;99.90
63960;DHT22;50136;51.374;0.096;2024-03-02T09:00:42;6.20;99.90
63960;DHT22;50136;51.374;0.096;2024-03-02T09:10:46;6.30;99.90
63960;DHT22;50136;51.374;0.096;2024-03-02T09:20:48;6.40;99.90
63960;DHT22;50136;51.374;0.096;2024-03-02T09:30:51;6.40;99.90
63960;DHT22;50136;51.374;0.096;2024-03-02T09:51:39;8.40;99.90
63960;DHT22;50136;51.374;0.096;2024-03-02T10:01:55;7.40;99.90
63960;DHT22;50136;51.374;0.096;2024-03-02T10:12:04;6.50;99.90
63960;DHT22;50136;51.374;0.096;2024-03-02T10:22:07;6.00;99.90
63960;DHT22;50136;51.374;0.096;2024-03-02T10:32:11;5.90;99.90
63960;DHT22;50136;51.374;0.096;2024-03-02T10:42:14;6.20;99.90
63960;DHT22;50136;51.374;0.096;2024-03-02T10:52:18;8.50;99.90
63960;DHT22;50136;51.374;0.096;2024-03-02T11:02:21;9.10;99.90
63960;DHT22;50136;51.374;0.096;2024-03-02T11:12:29;7.80;99.90
63960;DHT22;50136;51.374;0.096;2024-03-02T11:22:31;7.60;99.90
63960;DHT22;50136;51.374;0.096;2024-03-02T11:32:34;7.40;99.90
63960;DHT22;50136;51.374;0.096;2024-03-02T11:42:37;6.40;99.90
63960;DHT22;50136;51.374;0.096;2024-03-02T11:52:42;6.90;99.90
63960;DHT22;50136;51.374;0.096;2024-03-02T12:02:45;7.70;99.90
63960;DHT22;50136;51.374;0.096;2024-03-02T12:12:55;7.70;99.90
63960;DHT22;50136;51.374;0.096;2024-03-02T12:22:58;7.90;99.90
63960;DHT22;50136;51.374;0.096;2024-03-02T12:33:01;8.10;99.90
63960;DHT22;50136;51.374;0.096;2024-03-02T12:43:05;8.60;99.90
63960;DHT22;50136;51.374;0.096;2024-03-02T12:53:14;8.50;99.90
63960;DHT22;50136;51.374;0.096;2024-03-02T13:03:18;8.40;99.90
63960;DHT22;50136;51.374;0.096;2024-03-02T13:13:21;8.60;99.90
63960;DHT22;50136;51.374;0.096;2024-03-02T13:23:32;8.90;99.90
63960;DHT22;50136;51.374;0.096;2024-03-02T13:33:36;8.80;99.90
63960;DHT22;50136;51.374;0.096;2024-03-02T13:43:38;8.90;99.90
63960;DHT22;50136;51.374;0.096;2024-03-02T13:53:41;8.90;99.90
63960;DHT22;50136;51.374;0.096;2024-03-02T14:03:43;8.90;99.90
63960;DHT22;50136;51.374;0.096;2024-03-02T14:13:47;8.80;99.90
63960;DHT22;50136;51.374;0.096;2024-03-02T14:23:49;9.10;99.90
63960;DHT22;50136;51.374;0.096;2024-03-02T14:33:53;9.60;99.90
63960;DHT22;50136;51.374;0.096;2024-03-02T14:43:55;9.40;99.90
63960;DHT22;50136;51.374;0.096;2024-03-02T14:54:00;9.30;99.90
63960;DHT22;50136;51.374;0.096;2024-03-02T15:04:02;9.50;99.90
63960;DHT22;50136;51.374;0.096;2024-03-02T15:14:09;10.10;99.90
63960;DHT22;50136;51.374;0.096;2024-03-02T15:24:11;9.60;99.90
63960;DHT22;50136;51.374;0.096;2024-03-02T15:34:15;9.80;99.90
63960;DHT22;50136;51.374;0.096;2024-03-02T15:44:17;9.80;99.90
63960;DHT22;50136;51.374;0.096;2024-03-02T15:54:20;9.70;99.90
63960;DHT22;50136;51.374;0.096;2024-03-02T16:04:22;9.70;99.90
63960;DHT22;50136;51.374;0.096;2024-03-02T16:14:26;9.30;99.90
63960;DHT22;50136;51.374;0.096;2024-03-02T16:24:30;9.10;99.90
63960;DHT22;50136;51.374;0.096;2024-03-02T16:34:36;8.80;99.90
63960;DHT22;50136;51.374;0.096;2024-03-02T16:44:41;8.50;99.90
63960;DHT22;50136;51.374;0.096;2024-03-02T16:54:48;8.20;99.90
63960;DHT22;50136;51.374;0.096;2024-03-02T17:04:50;8.00;99.90
63960;DHT22;50136;51.374;0.096;2024-03-02T17:14:54;7.50;99.90
63960;DHT22;50136;51.374;0.096;2024-03-02T17:24:56;7.30;99.90
63960;DHT22;50136;51.374;0.096;2024-03-02T17:35:03;7.10;99.90
63960;DHT22;50136;51.374;0.096;2024-03-02T17:45:09;6.90;99.90
63960;DHT22;50136;51.374;0.096;2024-03-02T17:55:12;6.80;99.90
63960;DHT22;50136;51.374;0.096;2024-03-02T18:05:17;6.70;99.90
63960;DHT22;50136;51.374;0.096;2024-03-02T18:15:21;6.40;99.90
63960;DHT22;50136;51.374;0.096;2024-03-02T18:25:28;6.20;99.90
63960;DHT22;50136;51.374;0.096;2024-03-02T18:35:34;6.10;99.90
63960;DHT22;50136;51.374;0.096;2024-03-02T18:45:36;5.90;99.90
63960;DHT22;50136;51.374;0.096;2024-03-02T18:55:42;5.70;99.90
63960;DHT22;50136;51.374;0.096;2024-03-02T19:05:44;5.50;99.90
63960;DHT22;50136;51.374;0.096;2024-03-02T19:15:52;5.40;99.90
63960;DHT22;50136;51.374;0.096;2024-03-02T19:25:56;5.40;99.90
63960;DHT22;50136;51.374;0.096;2024-03-02T19:36:02;5.30;99.90
63960;DHT22;50136;51.374;0.096;2024-03-02T19:46:04;5.20;99.90
63960;DHT22;50136;51.374;0.096;2024-03-02T19:56:08;5.00;99.90
63960;DHT22;50136;51.374;0.096;2024-03-02T20:06:10;4.80;99.90
63960;DHT22;50136;51.374;0.096;2024-03-02T20:16:13;4.70;99.90
63960;DHT22;50136;51.374;0.096;2024-03-02T20:26:15;4.50;99.90
63960;DHT22;50136;51.374;0.096;2024-03-02T20:36:22;4.60;99.90
63960;DHT22;50136;51.374;0.096;2024-03-02T20:46:24;4.70;99.90
63960;DHT22;50136;51.374;0.096;2024-03-02T20:56:28;4.50;99.90
63960;DHT22;50136;51.374;0.096;2024-03-02T21:06:30;4.50;99.90
63960;DHT22;50136;51.374;0.096;2024-03-02T21:16:33;4.60;99.90
63960;DHT22;50136;51.374;0.096;2024-03-02T21:26:38;4.50;99.90
63960;DHT22;50136;51.374;0.096;2024-03-02T21:36:41;4.50;99.90
63960;DHT22;50136;51.374;0.096;2024-03-02T21:46:44;4.50;99.90
63960;DHT22;50136;51.374;0.096;2024-03-02T21:56:48;4.30;99.90
63960;DHT22;50136;51.374;0.096;2024-03-02T22:06:53;4.10;99.90
63960;DHT22;50136;51.374;0.096;2024-03-02T22:16:56;4.10;99.90
63960;DHT22;50136;51.374;0.096;2024-03-02T22:26:58;3.90;99.90
63960;DHT22;50136;51.374;0.096;2024-03-02T22:37:02;3.90;99.90
63960;DHT22;50136;51.374;0.096;2024-03-02T22:47:04;3.90;99.90
63960;DHT22;50136;51.374;0.096;2024-03-02T22:57:08;3.90;99.90
63960;DHT22;50136;51.374;0.096;2024-03-02T23:07:10;3.90;99.90
63960;DHT22;50136;51.374;0.096;2024-03-02T23:17:13;4.10;99.90
63960;DHT22;50136;51.374;0.096;2024-03-02T23:27:15;3.90;99.90
63960;DHT22;50136;51.374;0.096;2024-03-02T23:37:19;3.80;99.90
63960;DHT22;50136;51.374;0.096;2024-03-02T23:47:21;3.70;99.90
63960;DHT22;50136;51.374;0.096;2024-03-02T23:57:24;3.70;99.90
